createdAt,value
2023-02-28T00:01:13.188Z,-1.50
2023-02-28T00:03:40.395Z,-1.50
2023-02-28T00:06:07.665Z,-1.50
2023-02-28T00:08:34.732Z,-1.50
2023-02-28T00:11:05.967Z,-1.50
2023-02-28T00:13:33.097Z,-1.50
2023-02-28T00:16:04.626Z,-1.60
2023-02-28T00:18:31.680Z,-1.60
2023-02-28T00:20:59.091Z,-1.60
2023-02-28T00:23:26.465Z,-1.60
2023-02-28T00:25:53.405Z,-1.60
2023-02-28T00:28:20.280Z,-1.60
2023-02-28T00:30:47.323Z,-1.60
2023-02-28T00:33:14.231Z,-1.60
2023-02-28T00:35:41.073Z,-1.60
2023-02-28T00:38:08.094Z,-1.60
2023-02-28T00:40:34.888Z,-1.60
2023-02-28T00:43:01.661Z,-1.60
2023-02-28T00:45:28.413Z,-1.60
2023-02-28T00:47:55.208Z,-1.60
2023-02-28T00:50:22.203Z,-1.60
2023-02-28T00:52:49.029Z,-1.60
2023-02-28T00:55:16.084Z,-1.60
2023-02-28T00:57:42.799Z,-1.60
2023-02-28T01:00:10.068Z,-1.70
2023-02-28T01:02:36.796Z,-1.70
2023-02-28T01:05:04.248Z,-1.70
2023-02-28T01:07:31.033Z,-1.70
2023-02-28T01:09:57.801Z,-1.70
2023-02-28T01:12:24.604Z,-1.70
2023-02-28T01:14:51.410Z,-1.80
2023-02-28T01:17:18.304Z,-1.80
2023-02-28T01:19:45.065Z,-1.80
2023-02-28T01:22:11.787Z,-1.80
2023-02-28T01:24:38.711Z,-1.80
2023-02-28T01:27:05.476Z,-1.80
2023-02-28T01:29:32.268Z,-1.80
2023-02-28T01:32:00.626Z,-1.80
2023-02-28T01:34:27.395Z,-1.80
2023-02-28T01:36:54.470Z,-1.80
2023-02-28T01:39:21.284Z,-1.80
2023-02-28T01:41:48.414Z,-1.90
2023-02-28T01:44:53.359Z,-1.90
2023-02-28T01:47:20.128Z,-1.90
2023-02-28T01:49:46.892Z,-1.90
2023-02-28T01:52:19.226Z,-1.90
2023-02-28T01:54:51.985Z,-1.90
2023-02-28T01:57:22.387Z,-1.90
2023-02-28T01:59:53.483Z,-1.90
2023-02-28T02:02:21.602Z,-1.90
2023-02-28T02:05:09.180Z,-1.90
2023-02-28T02:07:40.586Z,-1.90
2023-02-28T02:10:22.946Z,-1.90
2023-02-28T02:13:09.618Z,-1.90
2023-02-28T02:15:59.633Z,-2.00
2023-02-28T02:18:38.508Z,-2.00
2023-02-28T02:21:11.472Z,-2.00
2023-02-28T02:23:52.293Z,-2.00
2023-02-28T02:26:46.836Z,-2.00
2023-02-28T02:29:41.615Z,-2.00
2023-02-28T02:33:06.931Z,-1.90
2023-02-28T02:36:00.635Z,-1.90
2023-02-28T02:38:51.376Z,-1.90
2023-02-28T02:41:43.151Z,-1.90
2023-02-28T02:44:12.638Z,-2.00
2023-02-28T02:46:45.736Z,-2.00
2023-02-28T02:49:20.150Z,-2.00
2023-02-28T02:51:47.149Z,-2.00
2023-02-28T02:54:24.520Z,-2.00
2023-02-28T02:56:51.548Z,-2.00
2023-02-28T02:59:22.204Z,-2.00
2023-02-28T03:01:54.403Z,-2.00
2023-02-28T03:04:22.497Z,-2.10
2023-02-28T03:06:49.719Z,-2.10
2023-02-28T03:09:16.521Z,-2.00
2023-02-28T03:11:43.552Z,-2.10
2023-02-28T03:14:42.498Z,-2.00
2023-02-28T03:17:12.437Z,-2.00
2023-02-28T03:19:58.267Z,-1.90
2023-02-28T03:23:06.099Z,-2.00
2023-02-28T03:25:34.773Z,-2.00
2023-02-28T03:28:02.656Z,-2.10
2023-02-28T03:30:49.494Z,-2.10
2023-02-28T03:33:18.972Z,-2.10
2023-02-28T03:35:57.181Z,-2.00
2023-02-28T03:38:32.709Z,-2.10
2023-02-28T03:41:07.028Z,-2.10
2023-02-28T03:43:36.222Z,-2.10
2023-02-28T03:46:04.302Z,-2.10
2023-02-28T03:48:45.672Z,-2.10
2023-02-28T03:51:15.511Z,-2.00
2023-02-28T03:53:48.014Z,-2.00
2023-02-28T03:56:18.315Z,-2.00
2023-02-28T03:58:58.592Z,-2.10
2023-02-28T04:01:34.987Z,-2.10
2023-02-28T04:04:02.145Z,-2.10
2023-02-28T04:06:29.088Z,-2.10
2023-02-28T04:08:55.926Z,-2.00
2023-02-28T04:11:41.423Z,-2.00
2023-02-28T04:14:08.790Z,-2.00
2023-02-28T04:16:36.940Z,-2.00
2023-02-28T04:19:05.957Z,-2.00
2023-02-28T04:21:34.585Z,-1.90
2023-02-28T04:24:01.788Z,-1.90
2023-02-28T04:26:36.101Z,-1.90
2023-02-28T04:29:04.241Z,-1.90
2023-02-28T04:31:31.376Z,-2.00
2023-02-28T04:33:58.367Z,-2.10
2023-02-28T04:36:25.230Z,-2.10
2023-02-28T04:38:52.014Z,-2.20
2023-02-28T04:41:19.020Z,-2.10
2023-02-28T04:43:46.009Z,-2.20
2023-02-28T04:46:13.078Z,-2.30
2023-02-28T04:48:40.303Z,-2.40
2023-02-28T04:51:09.091Z,-2.40
2023-02-28T04:53:36.666Z,-2.40
2023-02-28T04:56:03.900Z,-2.40
2023-02-28T04:58:30.992Z,-2.40
2023-02-28T05:01:17.902Z,-2.40
2023-02-28T05:03:44.943Z,-2.50
2023-02-28T05:06:12.495Z,-2.70
2023-02-28T05:08:39.299Z,-2.80
2023-02-28T05:11:08.210Z,-2.70
2023-02-28T05:13:35.867Z,-2.80
2023-02-28T05:16:03.022Z,-2.80
2023-02-28T05:18:29.811Z,-2.70
2023-02-28T05:20:56.614Z,-2.70
2023-02-28T05:23:23.600Z,-2.60
2023-02-28T05:25:50.381Z,-2.60
2023-02-28T05:28:17.153Z,-2.50
2023-02-28T05:30:43.943Z,-2.50
2023-02-28T05:33:12.346Z,-2.60
2023-02-28T05:35:43.770Z,-2.80
2023-02-28T05:38:10.595Z,-2.90
2023-02-28T05:40:40.192Z,-2.90
2023-02-28T05:43:07.242Z,-2.90
2023-02-28T05:45:34.087Z,-2.90
2023-02-28T05:48:00.896Z,-2.90
2023-02-28T05:50:27.696Z,-2.90
2023-02-28T05:52:54.473Z,-2.80
2023-02-28T05:55:21.327Z,-2.80
2023-02-28T05:57:48.117Z,-2.80
2023-02-28T06:00:16.685Z,-2.90
2023-02-28T06:02:43.471Z,-2.90
2023-02-28T06:05:17.662Z,-2.90
2023-02-28T06:07:44.628Z,-2.90
2023-02-28T06:10:12.166Z,-3.00
2023-02-28T06:12:39.188Z,-3.00
2023-02-28T06:15:06.361Z,-3.00
2023-02-28T06:17:33.054Z,-3.00
2023-02-28T06:20:00.316Z,-3.00
2023-02-28T06:22:27.198Z,-3.00
2023-02-28T06:24:54.045Z,-3.10
2023-02-28T06:27:21.624Z,-3.10
2023-02-28T06:29:48.724Z,-3.00
2023-02-28T06:32:15.506Z,-3.00
2023-02-28T06:34:42.361Z,-3.00
2023-02-28T06:37:09.136Z,-3.00
2023-02-28T06:39:35.907Z,-3.10
2023-02-28T06:42:03.070Z,-3.10
2023-02-28T06:44:36.090Z,-3.10
2023-02-28T06:47:06.958Z,-3.20
2023-02-28T06:49:35.005Z,-3.10
2023-02-28T06:52:02.082Z,-3.10
2023-02-28T06:54:28.912Z,-3.00
2023-02-28T06:56:55.681Z,-2.90
2023-02-28T06:59:22.440Z,-2.70
2023-02-28T07:01:49.544Z,-2.60
2023-02-28T07:04:16.439Z,-2.40
2023-02-28T07:06:43.187Z,-2.30
2023-02-28T07:09:10.020Z,-2.20
2023-02-28T07:11:36.974Z,-2.20
2023-02-28T07:14:03.832Z,-2.10
2023-02-28T07:16:34.177Z,-1.90
2023-02-28T07:19:00.959Z,-1.80
2023-02-28T07:21:28.029Z,-1.70
2023-02-28T07:23:54.988Z,-1.60
2023-02-28T07:26:21.794Z,-1.50
2023-02-28T07:28:48.996Z,-1.40
2023-02-28T07:31:16.225Z,-1.30
2023-02-28T07:33:43.194Z,-1.20
2023-02-28T07:36:16.124Z,-1.10
2023-02-28T07:38:49.104Z,-1.00
2023-02-28T07:41:17.459Z,-0.90
2023-02-28T07:43:45.651Z,-0.80
2023-02-28T07:46:16.197Z,-0.70
2023-02-28T07:48:43.550Z,-0.70
2023-02-28T07:51:10.577Z,-0.60
2023-02-28T07:53:37.511Z,-0.50
2023-02-28T07:56:04.913Z,-0.50
2023-02-28T07:58:31.808Z,-0.30
2023-02-28T08:00:59.169Z,-0.20
2023-02-28T08:03:26.021Z,0.00
2023-02-28T08:05:53.708Z,0.10
2023-02-28T08:08:20.557Z,0.20
2023-02-28T08:10:47.447Z,0.30
2023-02-28T08:13:14.290Z,0.40
2023-02-28T08:15:43.910Z,0.50
2023-02-28T08:18:10.844Z,0.50
2023-02-28T08:20:37.657Z,0.60
2023-02-28T08:23:04.636Z,0.60
2023-02-28T08:25:31.428Z,0.60
2023-02-28T08:27:58.202Z,0.60
2023-02-28T08:30:25.265Z,0.60
2023-02-28T08:32:52.047Z,0.70
2023-02-28T08:35:18.900Z,0.80
2023-02-28T08:37:45.859Z,0.80
2023-02-28T08:40:19.002Z,0.80
2023-02-28T08:42:46.495Z,0.70
2023-02-28T08:45:14.180Z,0.70
2023-02-28T08:47:41.500Z,0.70
2023-02-28T08:50:08.510Z,0.80
2023-02-28T08:52:35.801Z,0.90
2023-02-28T08:55:02.537Z,0.90
2023-02-28T08:57:29.322Z,0.90
2023-02-28T08:59:56.176Z,0.90
2023-02-28T09:02:22.954Z,0.90
2023-02-28T09:04:49.959Z,0.90
2023-02-28T09:07:16.802Z,1.00
2023-02-28T09:09:54.794Z,1.10
2023-02-28T09:12:23.274Z,1.20
2023-02-28T09:14:49.961Z,1.20
2023-02-28T09:17:16.826Z,1.30
2023-02-28T09:19:43.738Z,1.30
2023-02-28T09:22:12.183Z,1.30
2023-02-28T09:27:11.131Z,1.40
2023-02-28T09:29:38.050Z,1.40
2023-02-28T09:32:06.904Z,1.50
2023-02-28T09:34:33.928Z,1.50
2023-02-28T09:37:00.822Z,1.60
2023-02-28T09:39:28.070Z,1.60
2023-02-28T09:41:55.922Z,1.80
2023-02-28T09:44:36.585Z,1.90
2023-02-28T09:47:31.359Z,2.00
2023-02-28T09:49:59.615Z,2.10
2023-02-28T09:52:30.882Z,2.20
2023-02-28T09:55:00.705Z,2.20
2023-02-28T09:57:33.997Z,2.30
2023-02-28T10:00:40.616Z,2.30
2023-02-28T10:03:31.607Z,2.40
2023-02-28T10:06:09.853Z,2.50
2023-02-28T10:08:43.643Z,2.60
2023-02-28T10:11:11.944Z,2.60
2023-02-28T10:13:51.501Z,2.70
2023-02-28T10:16:28.367Z,2.80
2023-02-28T10:19:10.739Z,2.80
2023-02-28T10:21:57.530Z,3.00
2023-02-28T10:24:36.541Z,3.10
2023-02-28T10:27:17.824Z,3.20
2023-02-28T10:29:45.926Z,3.20
2023-02-28T10:32:17.008Z,3.30
2023-02-28T10:34:43.803Z,3.30
2023-02-28T10:37:11.906Z,3.40
2023-02-28T10:39:43.274Z,3.50
2023-02-28T10:42:27.563Z,3.60
2023-02-28T10:45:15.933Z,3.60
2023-02-28T10:47:56.586Z,3.70
2023-02-28T10:50:47.805Z,3.80
2023-02-28T10:53:26.685Z,3.90
2023-02-28T10:56:01.776Z,3.90
2023-02-28T10:58:31.135Z,4.00
2023-02-28T11:00:58.813Z,4.10
2023-02-28T11:03:26.748Z,4.20
2023-02-28T11:05:53.667Z,4.20
2023-02-28T11:08:20.512Z,4.30
2023-02-28T11:10:49.092Z,4.40
2023-02-28T11:13:20.505Z,4.50
2023-02-28T11:15:55.048Z,4.50
2023-02-28T11:18:31.828Z,4.60
2023-02-28T11:21:00.177Z,4.70
2023-02-28T11:23:28.574Z,4.70
2023-02-28T11:26:00.446Z,4.80
2023-02-28T11:28:32.386Z,4.90
2023-02-28T11:31:17.504Z,4.80
2023-02-28T11:33:45.932Z,4.90
2023-02-28T11:36:21.368Z,4.90
2023-02-28T11:38:50.432Z,4.90
2023-02-28T11:41:28.784Z,5.00
2023-02-28T11:44:01.469Z,5.00
2023-02-28T11:46:45.113Z,5.10
2023-02-28T11:49:28.786Z,5.10
2023-02-28T11:52:18.673Z,5.20
2023-02-28T11:54:53.221Z,5.20
2023-02-28T11:57:32.299Z,5.40
2023-02-28T12:00:04.243Z,5.50
2023-02-28T12:02:35.869Z,5.50
2023-02-28T12:05:37.445Z,5.60
2023-02-28T12:08:25.990Z,5.70
2023-02-28T12:10:55.781Z,5.70
2023-02-28T12:13:42.735Z,5.80
2023-02-28T12:16:30.970Z,5.90
2023-02-28T12:19:27.499Z,5.90
2023-02-28T12:22:18.496Z,5.90
2023-02-28T12:24:51.752Z,6.00
2023-02-28T12:27:20.283Z,6.10
2023-02-28T12:30:05.625Z,6.00
2023-02-28T12:32:35.257Z,6.10
2023-02-28T12:35:33.141Z,6.10
2023-02-28T12:38:24.176Z,6.20
2023-02-28T12:41:08.214Z,6.30
2023-02-28T12:43:42.122Z,6.30
2023-02-28T12:46:23.272Z,6.40
2023-02-28T12:49:12.620Z,6.40
2023-02-28T12:51:39.556Z,6.50
2023-02-28T12:54:29.588Z,6.50
2023-02-28T12:57:35.204Z,6.60
2023-02-28T13:00:10.727Z,6.60
2023-02-28T13:02:54.440Z,6.60
2023-02-28T13:05:46.027Z,6.60
2023-02-28T13:08:50.956Z,6.70
2023-02-28T13:11:54.739Z,6.80
2023-02-28T13:14:23.736Z,6.90
2023-02-28T13:16:59.414Z,6.90
2023-02-28T13:19:28.513Z,6.90
2023-02-28T13:21:55.346Z,6.90
2023-02-28T13:24:37.328Z,6.90
2023-02-28T13:27:04.116Z,7.00
2023-02-28T13:29:38.998Z,7.00
2023-02-28T13:32:09.538Z,7.10
2023-02-28T13:34:47.533Z,7.10
2023-02-28T13:37:24.048Z,7.20
2023-02-28T13:39:57.612Z,7.20
2023-02-28T13:42:40.199Z,7.20
2023-02-28T13:45:07.858Z,7.20
2023-02-28T13:47:44.609Z,7.20
2023-02-28T13:50:38.776Z,7.30
2023-02-28T13:53:14.884Z,7.30
2023-02-28T13:56:20.764Z,7.40
2023-02-28T13:59:07.600Z,7.40
2023-02-28T14:01:52.554Z,7.40
2023-02-28T14:04:40.128Z,7.40
2023-02-28T14:07:07.453Z,7.50
2023-02-28T14:09:42.086Z,7.50
2023-02-28T14:12:46.138Z,7.60
2023-02-28T14:15:39.496Z,7.60
2023-02-28T14:18:25.847Z,7.60
2023-02-28T14:21:13.731Z,7.60
2023-02-28T14:23:49.519Z,7.70
2023-02-28T14:26:19.218Z,7.70
2023-02-28T14:29:04.333Z,7.60
2023-02-28T14:31:35.780Z,7.60
2023-02-28T14:34:54.091Z,7.70
2023-02-28T14:37:26.738Z,7.70
2023-02-28T14:39:53.472Z,7.70
2023-02-28T14:42:38.576Z,7.80
2023-02-28T14:45:05.936Z,7.80
2023-02-28T14:47:33.649Z,7.80
2023-02-28T14:50:01.083Z,7.90
2023-02-28T14:52:30.695Z,7.90
2023-02-28T14:55:03.977Z,7.90
2023-02-28T14:57:32.790Z,7.90
2023-02-28T15:00:00.589Z,8.00
2023-02-28T15:02:27.799Z,8.00
2023-02-28T15:04:56.441Z,8.00
2023-02-28T15:07:29.401Z,8.00
2023-02-28T15:10:28.752Z,8.10
2023-02-28T15:13:08.998Z,8.10
2023-02-28T15:16:01.284Z,8.10
2023-02-28T15:18:33.358Z,8.10
2023-02-28T15:21:03.725Z,8.10
2023-02-28T15:23:30.447Z,8.00
2023-02-28T15:25:57.313Z,8.00
2023-02-28T15:28:24.146Z,8.00
2023-02-28T15:30:58.722Z,7.90
2023-02-28T15:33:28.081Z,7.80
2023-02-28T15:36:29.248Z,7.90
2023-02-28T15:39:01.563Z,7.90
2023-02-28T15:41:40.787Z,7.80
2023-02-28T15:44:25.403Z,7.80
2023-02-28T15:46:59.638Z,7.80
2023-02-28T15:49:26.426Z,7.80
2023-02-28T15:51:53.460Z,7.90
2023-02-28T15:54:25.591Z,7.80
2023-02-28T15:56:53.158Z,7.90
2023-02-28T15:59:25.831Z,7.90
2023-02-28T16:02:11.036Z,7.80
2023-02-28T16:04:38.059Z,7.70
2023-02-28T16:07:06.038Z,7.70
2023-02-28T16:09:34.971Z,7.70
2023-02-28T16:12:02.878Z,7.70
2023-02-28T16:14:33.511Z,7.70
2023-02-28T16:17:05.129Z,7.60
2023-02-28T16:19:33.745Z,7.50
2023-02-28T16:22:02.141Z,7.40
2023-02-28T16:24:28.999Z,7.30
2023-02-28T16:26:56.024Z,7.20
2023-02-28T16:29:26.972Z,7.10
2023-02-28T16:31:54.658Z,6.90
2023-02-28T16:34:22.060Z,6.80
2023-02-28T16:36:49.477Z,6.70
2023-02-28T16:39:16.267Z,6.60
2023-02-28T16:41:46.386Z,6.60
2023-02-28T16:44:25.555Z,6.50
2023-02-28T16:46:52.524Z,6.50
2023-02-28T16:49:19.316Z,6.40
2023-02-28T16:51:46.097Z,6.50
2023-02-28T16:54:12.913Z,6.50
2023-02-28T16:56:41.928Z,6.40
2023-02-28T16:59:09.421Z,6.30
2023-02-28T17:01:36.370Z,6.20
2023-02-28T17:04:03.276Z,6.20
2023-02-28T17:06:30.864Z,6.20
2023-02-28T17:08:58.775Z,6.20
2023-02-28T17:11:25.754Z,6.10
2023-02-28T17:13:52.548Z,6.10
2023-02-28T17:16:31.253Z,6.00
2023-02-28T17:19:00.233Z,5.90
2023-02-28T17:21:27.048Z,5.80
2023-02-28T17:23:53.984Z,5.80
2023-02-28T17:26:21.212Z,5.70
2023-02-28T17:28:52.633Z,5.60
2023-02-28T17:31:19.541Z,5.60
2023-02-28T17:33:46.444Z,5.50
2023-02-28T17:36:18.020Z,5.50
2023-02-28T17:38:44.749Z,5.30
2023-02-28T17:41:12.051Z,5.20
2023-02-28T17:43:39.248Z,5.20
2023-02-28T17:46:06.893Z,5.20
2023-02-28T17:48:34.197Z,5.10
2023-02-28T17:51:00.979Z,5.00
2023-02-28T17:53:28.169Z,4.90
2023-02-28T17:55:54.945Z,4.90
2023-02-28T17:58:22.047Z,4.90
2023-02-28T18:00:54.578Z,4.80
2023-02-28T18:03:21.783Z,4.70
2023-02-28T18:05:49.026Z,4.60
2023-02-28T18:08:15.815Z,4.50
2023-02-28T18:10:42.614Z,4.50
2023-02-28T18:13:09.493Z,4.50
2023-02-28T18:15:36.443Z,4.50
2023-02-28T18:18:07.731Z,4.40
2023-02-28T18:20:35.320Z,4.30
2023-02-28T18:23:02.300Z,4.30
2023-02-28T18:25:29.612Z,4.10
2023-02-28T18:27:59.259Z,4.10
2023-02-28T18:30:33.420Z,4.10
2023-02-28T18:33:00.868Z,4.10
2023-02-28T18:35:37.295Z,4.00
2023-02-28T18:38:09.052Z,4.00
2023-02-28T18:40:36.118Z,4.00
2023-02-28T18:43:03.315Z,3.80
2023-02-28T18:45:30.208Z,3.80
2023-02-28T18:47:57.057Z,3.80
2023-02-28T18:50:23.929Z,3.80
2023-02-28T18:52:51.393Z,3.80
2023-02-28T18:55:19.057Z,3.80
2023-02-28T18:57:48.878Z,3.80
2023-02-28T19:00:18.262Z,3.80
2023-02-28T19:02:45.312Z,3.80
2023-02-28T19:05:12.307Z,3.70
2023-02-28T19:07:39.159Z,3.70
2023-02-28T19:10:06.584Z,3.70
2023-02-28T19:12:35.327Z,3.70
2023-02-28T19:15:03.559Z,3.60
2023-02-28T19:17:30.415Z,3.60
2023-02-28T19:19:57.255Z,3.60
2023-02-28T19:22:24.533Z,3.60
2023-02-28T19:24:51.493Z,3.60
2023-02-28T19:27:19.766Z,3.50
2023-02-28T19:29:50.777Z,3.50
2023-02-28T19:32:18.571Z,3.40
2023-02-28T19:34:45.414Z,3.40
2023-02-28T19:37:12.259Z,3.30
2023-02-28T19:39:42.167Z,3.30
2023-02-28T19:42:13.860Z,3.20
2023-02-28T19:44:41.337Z,3.20
2023-02-28T19:47:08.250Z,3.20
2023-02-28T19:49:35.325Z,3.20
2023-02-28T19:52:02.208Z,3.10
2023-02-28T19:54:29.091Z,3.00
2023-02-28T19:56:58.748Z,2.90
2023-02-28T19:59:35.793Z,3.00
2023-02-28T20:02:06.124Z,3.00
2023-02-28T20:04:32.982Z,3.00
2023-02-28T20:06:59.862Z,2.90
2023-02-28T20:09:31.075Z,2.80
2023-02-28T20:11:59.451Z,2.80
2023-02-28T20:14:26.942Z,2.90
2023-02-28T20:16:54.118Z,2.70
2023-02-28T20:19:21.755Z,2.70
2023-02-28T20:21:49.436Z,2.70
2023-02-28T20:24:16.537Z,2.60
2023-02-28T20:26:43.340Z,2.60
2023-02-28T20:29:10.089Z,2.60
2023-02-28T20:31:37.874Z,2.60
2023-02-28T20:34:05.173Z,2.60
2023-02-28T20:36:32.276Z,2.60
2023-02-28T20:39:00.311Z,2.60
2023-02-28T20:41:27.448Z,2.60
2023-02-28T20:43:55.593Z,2.60
2023-02-28T20:46:22.779Z,2.50
2023-02-28T20:48:49.567Z,2.40
2023-02-28T20:51:16.832Z,2.30
2023-02-28T20:53:43.642Z,2.20
2023-02-28T20:56:18.978Z,2.10
2023-02-28T20:58:46.880Z,2.00
2023-02-28T21:01:18.455Z,1.90
2023-02-28T21:03:49.189Z,1.90
2023-02-28T21:06:16.900Z,1.90
2023-02-28T21:08:43.802Z,1.90
2023-02-28T21:11:15.614Z,1.80
2023-02-28T21:13:42.675Z,1.80
2023-02-28T21:16:12.092Z,1.70
2023-02-28T21:18:39.052Z,1.60
2023-02-28T21:21:14.119Z,1.60
2023-02-28T21:23:41.766Z,1.60
2023-02-28T21:26:11.351Z,1.60
2023-02-28T21:28:38.657Z,1.60
2023-02-28T21:31:08.098Z,1.60
2023-02-28T21:33:35.400Z,1.60
2023-02-28T21:36:06.197Z,1.60
2023-02-28T21:38:33.250Z,1.50
2023-02-28T21:41:10.987Z,1.50
2023-02-28T21:43:37.895Z,1.50
2023-02-28T21:46:05.989Z,1.50
2023-02-28T21:48:32.935Z,1.40
2023-02-28T21:51:04.439Z,1.40
2023-02-28T21:53:31.767Z,1.30
2023-02-28T21:56:09.180Z,1.30
2023-02-28T21:58:36.060Z,1.30
2023-02-28T22:01:10.771Z,1.30
2023-02-28T22:03:37.672Z,1.30
2023-02-28T22:06:20.697Z,1.30
2023-02-28T22:08:49.287Z,1.30
2023-02-28T22:11:16.852Z,1.30
2023-02-28T22:13:43.921Z,1.30
2023-02-28T22:16:15.564Z,1.30
2023-02-28T22:18:42.445Z,1.40
2023-02-28T22:21:09.777Z,1.40
2023-02-28T22:23:37.542Z,1.40
2023-02-28T22:26:05.558Z,1.40
2023-02-28T22:28:32.357Z,1.40
2023-02-28T22:30:59.427Z,1.30
2023-02-28T22:33:26.749Z,1.30
2023-02-28T22:35:53.861Z,1.30
2023-02-28T22:38:20.681Z,1.30
2023-02-28T22:40:47.394Z,1.30
2023-02-28T22:43:14.501Z,1.30
2023-02-28T22:45:41.572Z,1.20
2023-02-28T22:48:08.953Z,1.20
2023-02-28T22:50:35.707Z,1.10
2023-02-28T22:53:02.567Z,1.10
2023-02-28T22:55:29.440Z,1.10
2023-02-28T22:57:56.256Z,1.00
2023-02-28T23:00:24.002Z,1.00
2023-02-28T23:02:50.926Z,1.00
2023-02-28T23:05:18.234Z,1.00
2023-02-28T23:07:44.975Z,1.00
2023-02-28T23:10:16.154Z,1.00
2023-02-28T23:12:50.830Z,1.00
2023-02-28T23:15:18.345Z,1.00
2023-02-28T23:17:45.391Z,1.10
2023-02-28T23:20:13.995Z,1.00
2023-02-28T23:22:40.805Z,1.00
2023-02-28T23:25:07.995Z,1.00
2023-02-28T23:27:34.877Z,1.00
2023-02-28T23:30:02.862Z,0.90
2023-02-28T23:32:29.688Z,1.00
2023-02-28T23:34:56.667Z,1.00
2023-02-28T23:37:23.421Z,0.90
2023-02-28T23:39:50.272Z,0.90
2023-02-28T23:42:17.507Z,0.80
2023-02-28T23:44:44.245Z,0.80
2023-02-28T23:47:13.755Z,0.80
2023-02-28T23:49:40.830Z,0.80
2023-02-28T23:52:07.548Z,0.80
2023-02-28T23:54:34.646Z,0.70
2023-02-28T23:57:01.466Z,0.70
2023-02-28T23:59:28.257Z,0.70
